Time,TemperatureF,DewpointF,PressureIn,WindDirection,WindDirectionDegrees,WindSpeedMPH,WindSpeedGustMPH,Humidity,HourlyPrecipIn,Conditions,Clouds,dailyrainin,SoftwareType,DateUTC
2013-04-30 00:11:00,61.1,55.0,29.91,SSE,165,7.0,13.0,80,0.00,,,0.00,weatherlink.com 1.10,2013-04-30 05:11:00,
2013-04-30 00:26:00,60.8,55.0,29.92,South,170,11.0,12.0,80,0.00,,,0.00,weatherlink.com 1.10,2013-04-30 05:26:00,
2013-04-30 00:41:00,60.3,54.0,29.91,South,174,8.0,14.0,81,0.00,,,0.00,weatherlink.com 1.10,2013-04-30 05:41:00,
2013-04-30 00:56:00,60.3,54.0,29.91,SSE,161,7.0,13.0,81,0.00,,,0.00,weatherlink.com 1.10,2013-04-30 05:56:00,
2013-04-30 01:11:00,60.5,54.0,29.91,South,182,11.0,13.0,80,0.00,,,0.00,weatherlink.com 1.10,2013-04-30 06:11:00,
2013-04-30 01:26:00,60.3,54.0,29.91,South,176,10.0,12.0,80,0.00,,,0.00,weatherlink.com 1.10,2013-04-30 06:26:00,
2013-04-30 01:41:00,60.2,54.0,29.91,South,180,10.0,15.0,80,0.00,,,0.00,weatherlink.com 1.10,2013-04-30 06:41:00,
2013-04-30 01:56:00,59.9,54.0,29.91,South,169,9.0,14.0,80,0.00,,,0.00,weatherlink.com 1.10,2013-04-30 06:56:00,
2013-04-30 02:11:00,59.8,54.0,29.91,South,172,8.0,19.0,81,0.00,,,0.00,weatherlink.com 1.10,2013-04-30 07:11:00,
2013-04-30 02:26:00,59.6,53.0,29.90,SSE,167,11.0,18.0,80,0.00,,,0.00,weatherlink.com 1.10,2013-04-30 07:26:00,
2013-04-30 02:41:00,59.9,53.0,29.90,South,178,12.0,19.0,79,0.00,,,0.00,weatherlink.com 1.10,2013-04-30 07:41:00,
2013-04-30 02:56:00,59.9,53.0,29.90,SSW,192,9.0,21.0,79,0.00,,,0.00,weatherlink.com 1.10,2013-04-30 07:56:00,
2013-04-30 03:11:00,59.7,53.0,29.91,South,174,7.0,16.0,79,0.00,,,0.00,weatherlink.com 1.10,2013-04-30 08:11:00,
2013-04-30 03:26:00,59.5,53.0,29.91,South,169,8.0,16.0,79,0.00,,,0.00,weatherlink.com 1.10,2013-04-30 08:26:00,
2013-04-30 03:41:00,59.2,53.0,29.91,South,181,12.0,16.0,80,0.00,,,0.00,weatherlink.com 1.10,2013-04-30 08:41:00,
2013-04-30 03:56:00,58.6,53.0,29.92,South,181,12.0,14.0,81,0.00,,,0.00,weatherlink.com 1.10,2013-04-30 08:56:00,
2013-04-30 04:11:00,58.2,53.0,29.92,South,170,7.0,12.0,82,0.00,,,0.00,weatherlink.com 1.10,2013-04-30 09:11:00,
2013-04-30 04:26:00,57.9,53.0,29.92,South,178,8.0,11.0,83,0.00,,,0.00,weatherlink.com 1.10,2013-04-30 09:26:00,
2013-04-30 04:41:00,57.4,53.0,29.92,South,177,9.0,12.0,84,0.00,,,0.00,weatherlink.com 1.10,2013-04-30 09:41:00,
2013-04-30 04:56:00,57.4,53.0,29.91,South,183,9.0,17.0,84,0.00,,,0.00,weatherlink.com 1.10,2013-04-30 09:56:00,
2013-04-30 05:11:00,57.1,53.0,29.91,South,174,9.0,14.0,85,0.00,,,0.00,weatherlink.com 1.10,2013-04-30 10:11:00,
2013-04-30 05:26:00,57.1,53.0,29.91,South,172,7.0,17.0,85,0.00,,,0.00,weatherlink.com 1.10,2013-04-30 10:26:00,
2013-04-30 05:41:00,57.1,53.0,29.91,South,187,8.0,15.0,85,0.00,,,0.00,weatherlink.com 1.10,2013-04-30 10:41:00,
2013-04-30 05:56:00,57.0,53.0,29.91,SSE,163,9.0,13.0,85,0.00,,,0.00,weatherlink.com 1.10,2013-04-30 10:56:00,
2013-04-30 06:11:00,57.0,53.0,29.91,South,180,10.0,12.0,85,0.00,,,0.00,weatherlink.com 1.10,2013-04-30 11:11:00,
2013-04-30 06:26:00,57.5,53.0,29.92,South,191,8.0,12.0,85,0.00,,,0.00,weatherlink.com 1.10,2013-04-30 11:26:00,
2013-04-30 06:41:00,57.8,53.0,29.92,South,191,8.0,11.0,85,0.00,,,0.00,weatherlink.com 1.10,2013-04-30 11:41:00,
2013-04-30 06:56:00,58.4,54.0,29.93,South,176,6.0,13.0,84,0.00,,,0.00,weatherlink.com 1.10,2013-04-30 11:56:00,
2013-04-30 07:11:00,58.7,54.0,29.93,South,182,8.0,12.0,83,0.00,,,0.00,weatherlink.com 1.10,2013-04-30 12:11:00,
2013-04-30 07:26:00,59.6,54.0,29.94,South,182,8.0,13.0,83,0.00,,,0.00,weatherlink.com 1.10,2013-04-30 12:26:00,
2013-04-30 07:41:00,60.5,55.0,29.93,South,181,8.0,15.0,81,0.00,,,0.00,weatherlink.com 1.10,2013-04-30 12:41:00,
2013-04-30 07:56:00,62.0,55.0,29.93,South,182,17.0,18.0,79,0.00,,,0.00,weatherlink.com 1.10,2013-04-30 12:56:00,
2013-04-30 08:12:00,63.5,56.0,29.93,South,190,8.0,17.0,77,0.00,,,0.00,weatherlink.com 1.10,2013-04-30 13:12:00,
2013-04-30 08:27:00,64.0,56.0,29.93,South,189,11.0,20.0,75,0.00,,,0.00,weatherlink.com 1.10,2013-04-30 13:27:00,
2013-04-30 08:42:00,64.3,56.0,29.93,South,179,9.0,18.0,75,0.00,,,0.00,weatherlink.com 1.10,2013-04-30 13:42:00,
2013-04-30 08:57:00,65.4,57.0,29.94,South,176,11.0,14.0,74,0.00,,,0.00,weatherlink.com 1.10,2013-04-30 13:57:00,
2013-04-30 09:12:00,67.3,58.0,29.93,South,182,12.0,16.0,73,0.00,,,0.00,weatherlink.com 1.10,2013-04-30 14:12:00,
2013-04-30 09:27:00,67.8,58.0,29.93,South,181,16.0,18.0,71,0.00,,,0.00,weatherlink.com 1.10,2013-04-30 14:27:00,
2013-04-30 09:42:00,68.4,58.0,29.93,South,172,12.0,21.0,69,0.00,,,0.00,weatherlink.com 1.10,2013-04-30 14:42:00,
2013-04-30 09:57:00,68.7,59.0,29.93,South,191,11.0,20.0,70,0.00,,,0.00,weatherlink.com 1.10,2013-04-30 14:57:00,
2013-04-30 10:12:00,69.7,59.0,29.94,South,187,15.0,15.0,69,0.00,,,0.00,weatherlink.com 1.10,2013-04-30 15:12:00,
2013-04-30 10:27:00,70.0,59.0,29.94,South,182,12.0,17.0,69,0.00,,,0.00,weatherlink.com 1.10,2013-04-30 15:27:00,
2013-04-30 10:42:00,70.7,60.0,29.93,South,182,10.0,16.0,68,0.00,,,0.00,weatherlink.com 1.10,2013-04-30 15:42:00,
2013-04-30 10:57:00,71.2,60.0,29.93,South,178,13.0,19.0,67,0.00,,,0.00,weatherlink.com 1.10,2013-04-30 15:57:00,
2013-04-30 11:12:00,72.1,61.0,29.94,South,184,11.0,13.0,67,0.00,,,0.00,weatherlink.com 1.10,2013-04-30 16:12:00,
2013-04-30 11:27:00,72.8,60.0,29.93,South,184,12.0,18.0,65,0.00,,,0.00,weatherlink.com 1.10,2013-04-30 16:27:00,
2013-04-30 11:42:00,73.8,61.0,29.93,SSW,195,9.0,18.0,64,0.00,,,0.00,weatherlink.com 1.10,2013-04-30 16:42:00,
2013-04-30 11:57:00,74.5,61.0,29.93,SSW,209,7.0,18.0,62,0.00,,,0.00,weatherlink.com 1.10,2013-04-30 16:57:00,
2013-04-30 12:12:00,76.1,61.0,29.93,SSW,195,8.0,17.0,60,0.00,,,0.00,weatherlink.com 1.10,2013-04-30 17:12:00,
2013-04-30 12:27:00,76.7,61.0,29.93,South,187,12.0,20.0,59,0.00,,,0.00,weatherlink.com 1.10,2013-04-30 17:27:00,
2013-04-30 12:42:00,76.7,61.0,29.93,South,186,11.0,19.0,59,0.00,,,0.00,weatherlink.com 1.10,2013-04-30 17:42:00,
2013-04-30 12:57:00,77.5,61.0,29.92,South,180,7.0,18.0,58,0.00,,,0.00,weatherlink.com 1.10,2013-04-30 17:57:00,
2013-04-30 13:12:00,78.6,61.0,29.92,SSW,205,10.0,16.0,55,0.00,,,0.00,weatherlink.com 1.10,2013-04-30 18:12:00,
2013-04-30 13:27:00,79.1,60.0,29.92,South,182,8.0,20.0,53,0.00,,,0.00,weatherlink.com 1.10,2013-04-30 18:27:00,
2013-04-30 13:42:00,80.2,63.0,29.91,South,187,8.0,19.0,55,0.00,,,0.00,weatherlink.com 1.10,2013-04-30 18:42:00,
2013-04-30 13:57:00,80.3,61.0,29.91,South,178,11.0,20.0,52,0.00,,,0.00,weatherlink.com 1.10,2013-04-30 18:57:00,
2013-04-30 14:12:00,80.8,61.0,29.91,SSW,199,6.0,20.0,51,0.00,,,0.00,weatherlink.com 1.10,2013-04-30 19:12:00,
2013-04-30 14:27:00,81.8,62.0,29.91,SSW,213,7.0,18.0,51,0.00,,,0.00,weatherlink.com 1.10,2013-04-30 19:27:00,
2013-04-30 14:42:00,82.0,62.0,29.91,SSW,197,14.0,16.0,50,0.00,,,0.00,weatherlink.com 1.10,2013-04-30 19:42:00,
2013-04-30 14:57:00,82.4,61.0,29.91,SSW,202,14.0,19.0,49,0.00,,,0.00,weatherlink.com 1.10,2013-04-30 19:57:00,
2013-04-30 15:13:00,82.8,61.0,29.91,SSW,195,8.0,17.0,48,0.00,,,0.00,weatherlink.com 1.10,2013-04-30 20:13:00,
2013-04-30 15:28:00,82.7,60.0,29.91,South,179,13.0,19.0,47,0.00,,,0.00,weatherlink.com 1.10,2013-04-30 20:28:00,
2013-04-30 15:43:00,82.6,61.0,29.90,South,184,14.0,19.0,48,0.00,,,0.00,weatherlink.com 1.10,2013-04-30 20:43:00,
2013-04-30 15:58:00,83.0,60.0,29.90,SSE,162,9.0,16.0,45,0.00,,,0.00,weatherlink.com 1.10,2013-04-30 20:58:00,
2013-04-30 16:13:00,82.8,61.0,29.90,SSW,195,6.0,20.0,47,0.00,,,0.00,weatherlink.com 1.10,2013-04-30 21:13:00,
2013-04-30 16:28:00,83.1,60.0,29.90,South,184,7.0,19.0,45,0.00,,,0.00,weatherlink.com 1.10,2013-04-30 21:28:00,
2013-04-30 16:43:00,83.0,60.0,29.91,South,178,12.0,18.0,46,0.00,,,0.00,weatherlink.com 1.10,2013-04-30 21:43:00,
2013-04-30 16:58:00,82.7,59.0,29.91,SSW,201,8.0,18.0,45,0.00,,,0.00,weatherlink.com 1.10,2013-04-30 21:58:00,
2013-04-30 17:13:00,82.7,57.0,29.91,South,175,8.0,17.0,42,0.00,,,0.00,weatherlink.com 1.10,2013-04-30 22:13:00,
2013-04-30 17:28:00,82.3,57.0,29.92,SSE,168,13.0,21.0,42,0.00,,,0.00,weatherlink.com 1.10,2013-04-30 22:28:00,
2013-04-30 17:43:00,81.9,58.0,29.92,South,176,13.0,15.0,44,0.00,,,0.00,weatherlink.com 1.10,2013-04-30 22:43:00,
2013-04-30 17:58:00,81.7,58.0,29.93,SSE,159,12.0,14.0,44,0.00,,,0.00,weatherlink.com 1.10,2013-04-30 22:58:00,
2013-04-30 18:13:00,81.3,55.0,29.93,South,174,8.0,17.0,41,0.00,,,0.00,weatherlink.com 1.10,2013-04-30 23:13:00,
2013-04-30 18:28:00,80.9,57.0,29.93,South,187,9.0,17.0,44,0.00,,,0.00,weatherlink.com 1.10,2013-04-30 23:28:00,
2013-04-30 18:43:00,80.4,58.0,29.94,South,176,12.0,18.0,46,0.00,,,0.00,weatherlink.com 1.10,2013-04-30 23:43:00,
2013-04-30 18:59:00,79.7,58.0,29.94,SSW,199,12.0,15.0,47,0.00,,,0.00,weatherlink.com 1.10,2013-04-30 23:59:00,
2013-04-30 19:13:00,78.9,59.0,29.94,South,189,10.0,16.0,50,0.00,,,0.00,weatherlink.com 1.10,2013-05-01 00:13:00,
2013-04-30 19:28:00,77.9,59.0,29.95,South,177,11.0,17.0,53,0.00,,,0.00,weatherlink.com 1.10,2013-05-01 00:28:00,
2013-04-30 19:43:00,76.4,59.0,29.95,South,181,8.0,14.0,56,0.00,,,0.00,weatherlink.com 1.10,2013-05-01 00:43:00,
2013-04-30 19:58:00,75.5,60.0,29.96,South,172,7.0,13.0,58,0.00,,,0.00,weatherlink.com 1.10,2013-05-01 00:58:00,
2013-04-30 20:13:00,74.4,60.0,29.96,South,190,6.0,10.0,61,0.00,,,0.00,weatherlink.com 1.10,2013-05-01 01:13:00,
2013-04-30 20:28:00,73.7,60.0,29.96,South,180,6.0,12.0,63,0.00,,,0.00,weatherlink.com 1.10,2013-05-01 01:28:00,
2013-04-30 20:43:00,73.0,61.0,29.97,South,178,4.0,10.0,66,0.00,,,0.00,weatherlink.com 1.10,2013-05-01 01:43:00,
2013-04-30 20:58:00,72.4,61.0,29.98,South,174,7.0,8.0,67,0.00,,,0.00,weatherlink.com 1.10,2013-05-01 01:58:00,
2013-04-30 21:13:00,71.8,61.0,29.98,South,175,4.0,7.0,69,0.00,,,0.00,weatherlink.com 1.10,2013-05-01 02:13:00,
2013-04-30 21:28:00,71.0,61.0,29.99,South,184,3.0,7.0,70,0.00,,,0.00,weatherlink.com 1.10,2013-05-01 02:28:00,
2013-04-30 21:43:00,69.9,60.0,29.99,South,182,2.0,7.0,72,0.00,,,0.00,weatherlink.com 1.10,2013-05-01 02:43:00,
2013-04-30 21:58:00,69.6,61.0,29.99,South,177,5.0,6.0,73,0.00,,,0.00,weatherlink.com 1.10,2013-05-01 02:58:00,
2013-04-30 22:13:00,69.0,61.0,29.99,South,174,2.0,6.0,75,0.00,,,0.00,weatherlink.com 1.10,2013-05-01 03:13:00,
2013-04-30 22:28:00,68.2,60.0,30.00,South,182,3.0,5.0,76,0.00,,,0.00,weatherlink.com 1.10,2013-05-01 03:28:00,
2013-04-30 22:43:00,68.0,61.0,30.00,South,178,4.0,6.0,77,0.00,,,0.00,weatherlink.com 1.10,2013-05-01 03:43:00,
2013-04-30 22:58:00,68.0,60.0,30.00,South,181,3.0,7.0,76,0.00,,,0.00,weatherlink.com 1.10,2013-05-01 03:58:00,
2013-04-30 23:13:00,67.1,60.0,30.01,South,182,3.0,6.0,78,0.00,,,0.00,weatherlink.com 1.10,2013-05-01 04:13:00,
2013-04-30 23:28:00,66.9,60.0,30.01,South,179,4.0,7.0,78,0.00,,,0.00,weatherlink.com 1.10,2013-05-01 04:28:00,
2013-04-30 23:43:00,66.8,60.0,30.01,South,177,5.0,7.0,79,0.00,,,0.00,weatherlink.com 1.10,2013-05-01 04:43:00,
2013-04-30 23:58:00,65.8,60.0,30.02,South,177,2.0,4.0,81,0.00,,,0.00,weatherlink.com 1.10,2013-05-01 04:58:00,